createdAt,value
2018-08-24T00:00:38.393Z,0.00
2018-08-24T00:01:38.413Z,0.00
2018-08-24T00:02:38.385Z,0.00
2018-08-24T00:03:38.354Z,0.00
2018-08-24T00:04:38.347Z,0.00
2018-08-24T00:05:38.404Z,0.00
2018-08-24T00:06:38.326Z,0.00
2018-08-24T00:07:38.332Z,0.00
2018-08-24T00:08:38.328Z,0.00
2018-08-24T00:09:38.301Z,0.00
2018-08-24T00:10:38.354Z,0.00
2018-08-24T00:11:38.279Z,0.00
2018-08-24T00:12:38.270Z,0.00
2018-08-24T00:13:38.284Z,0.00
2018-08-24T00:14:38.254Z,0.00
2018-08-24T00:15:38.272Z,0.00
2018-08-24T00:16:38.241Z,0.00
2018-08-24T00:17:38.235Z,0.00
2018-08-24T00:18:38.190Z,0.00
2018-08-24T00:19:38.186Z,0.00
2018-08-24T00:20:38.184Z,0.00
2018-08-24T00:21:38.197Z,0.00
2018-08-24T00:22:38.154Z,0.00
2018-08-24T00:23:38.158Z,0.00
2018-08-24T00:24:38.137Z,0.00
2018-08-24T00:25:38.120Z,0.00
2018-08-24T00:26:38.145Z,0.00
2018-08-24T00:27:38.098Z,0.00
2018-08-24T00:28:38.078Z,0.00
2018-08-24T00:29:38.096Z,0.00
2018-08-24T00:30:38.062Z,0.00
2018-08-24T00:31:38.092Z,0.00
2018-08-24T00:32:38.049Z,0.00
2018-08-24T00:33:38.024Z,0.00
2018-08-24T00:34:38.018Z,0.00
2018-08-24T00:35:38.000Z,0.00
2018-08-24T00:36:38.044Z,0.00
2018-08-24T00:37:37.965Z,0.00
2018-08-24T00:38:37.962Z,0.00
2018-08-24T00:39:37.948Z,0.00
2018-08-24T00:40:37.981Z,0.00
2018-08-24T00:41:37.972Z,0.00
2018-08-24T00:42:37.971Z,0.00
2018-08-24T00:43:37.900Z,0.00
2018-08-24T00:44:37.920Z,0.00
2018-08-24T00:45:37.876Z,0.00
2018-08-24T00:46:37.864Z,0.00
2018-08-24T00:47:37.859Z,0.00
2018-08-24T00:48:37.851Z,0.00
2018-08-24T00:49:37.880Z,0.00
2018-08-24T00:50:37.821Z,0.00
2018-08-24T00:51:37.819Z,0.00
2018-08-24T00:52:37.828Z,0.00
2018-08-24T00:53:37.790Z,0.00
2018-08-24T00:54:37.792Z,0.00
2018-08-24T00:55:37.796Z,0.00
2018-08-24T00:56:37.762Z,0.00
2018-08-24T00:57:37.742Z,0.00
2018-08-24T00:58:37.737Z,0.00
2018-08-24T00:59:37.751Z,0.00
2018-08-24T01:00:37.712Z,0.00
2018-08-24T01:01:37.714Z,0.00
2018-08-24T01:02:37.696Z,0.00
2018-08-24T01:03:37.670Z,0.00
2018-08-24T01:04:37.693Z,0.00
2018-08-24T01:05:37.646Z,0.00
2018-08-24T01:06:37.691Z,0.00
2018-08-24T01:07:37.707Z,0.00
2018-08-24T01:08:37.633Z,0.00
2018-08-24T01:09:37.608Z,0.00
2018-08-24T01:10:37.605Z,0.00
2018-08-24T01:11:37.628Z,0.00
2018-08-24T01:12:37.582Z,0.00
2018-08-24T01:13:37.575Z,0.00
2018-08-24T01:14:37.578Z,0.00
2018-08-24T01:15:37.593Z,0.00
2018-08-24T01:16:37.548Z,0.00
2018-08-24T01:17:37.520Z,0.00
2018-08-24T01:18:37.561Z,0.00
2018-08-24T01:19:37.501Z,0.00
2018-08-24T01:20:37.518Z,0.00
2018-08-24T01:21:37.502Z,0.00
2018-08-24T01:22:37.494Z,0.00
2018-08-24T01:23:37.454Z,0.00
2018-08-24T01:24:37.446Z,0.00
2018-08-24T01:25:37.441Z,0.00
2018-08-24T01:26:37.420Z,0.00
2018-08-24T01:27:37.478Z,0.00
2018-08-24T01:28:37.398Z,0.00
2018-08-24T01:29:37.392Z,0.00
2018-08-24T01:30:37.380Z,0.00
2018-08-24T01:31:37.420Z,0.00
2018-08-24T01:32:37.352Z,0.00
2018-08-24T01:33:37.375Z,0.00
2018-08-24T01:34:37.334Z,0.00
2018-08-24T01:35:37.314Z,0.00
2018-08-24T01:36:37.316Z,0.00
2018-08-24T01:37:37.324Z,0.00
2018-08-24T01:38:37.330Z,0.00
2018-08-24T01:39:37.270Z,0.00
2018-08-24T01:40:37.262Z,0.00
2018-08-24T01:41:37.242Z,0.00
2018-08-24T01:42:37.276Z,0.00
2018-08-24T01:43:37.224Z,0.00
2018-08-24T01:44:37.207Z,0.00
2018-08-24T01:45:37.202Z,0.00
2018-08-24T01:46:37.180Z,0.00
2018-08-24T01:47:37.198Z,0.00
2018-08-24T01:48:37.192Z,0.00
2018-08-24T01:49:37.185Z,0.00
2018-08-24T01:50:37.139Z,0.00
2018-08-24T01:51:37.131Z,0.00
2018-08-24T01:52:37.115Z,0.00
2018-08-24T01:53:37.141Z,0.00
2018-08-24T01:54:37.086Z,0.00
2018-08-24T01:55:37.113Z,0.00
2018-08-24T01:56:37.071Z,0.00
2018-08-24T01:57:37.072Z,0.00
2018-08-24T01:58:37.054Z,0.00
2018-08-24T01:59:37.080Z,0.00
2018-08-24T02:00:37.034Z,0.00
2018-08-24T02:01:37.018Z,0.00
2018-08-24T02:02:37.028Z,0.00
2018-08-24T02:03:36.998Z,0.00
2018-08-24T02:04:37.012Z,0.00
2018-08-24T02:05:36.986Z,0.00
2018-08-24T02:06:37.008Z,0.00
2018-08-24T02:07:36.948Z,0.00
2018-08-24T02:08:36.945Z,0.00
2018-08-24T02:09:36.928Z,0.00
2018-08-24T02:10:36.952Z,0.00
2018-08-24T02:11:36.909Z,0.00
2018-08-24T02:12:36.895Z,0.00
2018-08-24T02:13:36.869Z,0.00
2018-08-24T02:14:36.932Z,0.00
2018-08-24T02:15:36.889Z,0.00
2018-08-24T02:16:36.843Z,0.00
2018-08-24T02:17:36.827Z,0.00
2018-08-24T02:18:36.827Z,0.00
2018-08-24T02:19:36.841Z,0.00
2018-08-24T02:20:36.793Z,0.00
2018-08-24T02:21:36.781Z,0.00
2018-08-24T02:22:36.771Z,0.00
2018-08-24T02:23:36.761Z,0.00
2018-08-24T02:24:36.787Z,0.00
2018-08-24T02:25:36.743Z,0.00
2018-08-24T02:26:36.722Z,0.00
2018-08-24T02:27:36.727Z,0.00
2018-08-24T02:28:36.699Z,0.00
2018-08-24T02:29:36.733Z,0.00
2018-08-24T02:30:36.681Z,0.00
2018-08-24T02:31:36.666Z,0.00
2018-08-24T02:32:36.658Z,0.00
2018-08-24T02:33:36.649Z,0.00
2018-08-24T02:34:36.675Z,0.00
2018-08-24T02:35:36.626Z,0.00
2018-08-24T02:36:36.633Z,0.00
2018-08-24T02:37:36.597Z,0.00
2018-08-24T02:38:36.590Z,0.00
2018-08-24T02:39:36.607Z,0.00
2018-08-24T02:40:36.598Z,0.00
2018-08-24T02:41:36.565Z,0.00
2018-08-24T02:42:36.544Z,0.00
2018-08-24T02:43:36.524Z,0.00
2018-08-24T02:44:36.521Z,0.00
2018-08-24T02:45:36.558Z,0.00
2018-08-24T02:46:36.498Z,0.00
2018-08-24T02:47:36.502Z,0.00
2018-08-24T02:48:36.476Z,0.00
2018-08-24T02:49:36.470Z,0.00
2018-08-24T02:50:36.497Z,0.00
2018-08-24T02:51:36.441Z,0.00
2018-08-24T02:52:36.438Z,0.00
2018-08-24T02:53:36.450Z,0.00
2018-08-24T02:54:36.420Z,0.00
2018-08-24T02:55:36.446Z,0.00
2018-08-24T02:56:36.381Z,0.00
2018-08-24T02:57:36.380Z,0.00
2018-08-24T02:58:36.362Z,0.00
2018-08-24T02:59:36.364Z,0.00
2018-08-24T03:00:36.370Z,0.00
2018-08-24T03:01:36.340Z,0.00
2018-08-24T03:02:36.332Z,0.00
2018-08-24T03:03:36.322Z,0.00
2018-08-24T03:04:36.302Z,0.00
2018-08-24T03:05:36.478Z,0.00
2018-08-24T03:06:36.310Z,0.00
2018-08-24T03:07:36.267Z,0.00
2018-08-24T03:08:36.246Z,0.00
2018-08-24T03:09:36.246Z,0.00
2018-08-24T03:10:36.240Z,0.00
2018-08-24T03:11:36.258Z,0.00
2018-08-24T03:12:36.209Z,0.00
2018-08-24T03:13:36.191Z,0.00
2018-08-24T03:14:36.182Z,0.00
2018-08-24T03:15:36.210Z,0.00
2018-08-24T03:16:36.217Z,0.00
2018-08-24T03:17:36.150Z,0.00
2018-08-24T03:18:36.127Z,0.00
2018-08-24T03:19:36.125Z,0.00
2018-08-24T03:20:36.103Z,0.00
2018-08-24T03:21:36.140Z,0.00
2018-08-24T03:22:36.095Z,0.00
2018-08-24T03:23:36.071Z,0.00
2018-08-24T03:24:36.063Z,0.00
2018-08-24T03:25:36.050Z,0.00
2018-08-24T03:26:36.065Z,0.00
2018-08-24T03:27:36.117Z,0.00
2018-08-24T03:28:36.027Z,0.00
2018-08-24T03:29:36.003Z,0.00
2018-08-24T03:30:35.995Z,0.00
2018-08-24T03:31:35.987Z,0.00
2018-08-24T03:32:35.998Z,0.00
2018-08-24T03:33:35.957Z,0.00
2018-08-24T03:34:35.944Z,0.00
2018-08-24T03:35:35.983Z,0.00
2018-08-24T03:36:35.923Z,0.00
2018-08-24T03:37:35.957Z,0.00
2018-08-24T03:38:35.917Z,0.00
2018-08-24T03:39:35.886Z,0.00
2018-08-24T03:40:35.876Z,0.00
2018-08-24T03:41:35.874Z,0.00
2018-08-24T03:42:35.905Z,0.00
2018-08-24T03:43:35.841Z,0.00
2018-08-24T03:44:35.834Z,0.00
2018-08-24T03:45:35.818Z,0.00
2018-08-24T03:46:35.816Z,0.00
2018-08-24T03:47:35.824Z,0.00
2018-08-24T03:48:35.792Z,0.00
2018-08-24T03:49:35.778Z,0.00
2018-08-24T03:50:35.773Z,0.00
2018-08-24T03:51:35.768Z,0.00
2018-08-24T03:52:35.796Z,0.00
2018-08-24T03:53:35.739Z,0.00
2018-08-24T03:54:35.727Z,0.00
2018-08-24T03:55:35.710Z,0.00
2018-08-24T03:56:35.701Z,0.00
2018-08-24T03:57:35.742Z,0.00
2018-08-24T03:58:35.714Z,0.00
2018-08-24T03:59:35.672Z,0.00
2018-08-24T04:00:35.683Z,0.00
2018-08-24T04:01:35.649Z,0.00
2018-08-24T04:02:35.631Z,0.00
2018-08-24T04:03:35.666Z,5.62
2018-08-24T04:04:35.631Z,5.62
2018-08-24T04:05:35.603Z,5.62
2018-08-24T04:06:35.594Z,5.62
2018-08-24T04:07:35.580Z,5.62
2018-08-24T04:08:35.614Z,5.62
2018-08-24T04:09:35.552Z,11.25
2018-08-24T04:10:35.551Z,11.25
2018-08-24T04:11:35.540Z,11.25
2018-08-24T04:12:35.513Z,11.25
2018-08-24T04:13:35.561Z,11.25
2018-08-24T04:14:35.502Z,11.25
2018-08-24T04:15:35.481Z,16.88
2018-08-24T04:16:35.475Z,16.88
2018-08-24T04:17:35.465Z,16.88
2018-08-24T04:18:35.496Z,16.88
2018-08-24T04:19:35.535Z,22.50
2018-08-24T04:20:35.437Z,22.50
2018-08-24T04:21:35.421Z,22.50
2018-08-24T04:22:35.403Z,22.50
2018-08-24T04:23:35.433Z,28.12
2018-08-24T04:24:35.371Z,28.12
2018-08-24T04:25:35.385Z,28.12
2018-08-24T04:26:35.359Z,28.12
2018-08-24T04:27:35.380Z,33.75
2018-08-24T04:28:35.377Z,33.75
2018-08-24T04:29:35.317Z,33.75
2018-08-24T04:30:35.306Z,39.38
2018-08-24T04:31:35.295Z,39.38
2018-08-24T04:32:35.297Z,45.00
2018-08-24T04:33:35.331Z,45.00
2018-08-24T04:34:35.263Z,50.62
2018-08-24T04:35:35.255Z,50.62
2018-08-24T04:36:35.238Z,50.62
2018-08-24T04:37:35.227Z,50.62
2018-08-24T04:38:35.252Z,50.62
2018-08-24T04:39:35.208Z,50.62
2018-08-24T04:40:35.203Z,50.62
2018-08-24T04:41:35.179Z,50.62
2018-08-24T04:42:35.201Z,50.62
2018-08-24T04:43:35.163Z,50.62
2018-08-24T04:44:35.151Z,50.62
2018-08-24T04:45:35.166Z,56.25
2018-08-24T04:46:35.149Z,56.25
2018-08-24T04:47:35.151Z,56.25
2018-08-24T04:48:35.110Z,56.25
2018-08-24T04:49:35.097Z,56.25
2018-08-24T04:50:35.081Z,56.25
2018-08-24T04:51:35.102Z,56.25
2018-08-24T04:52:35.104Z,56.25
2018-08-24T04:53:35.053Z,56.25
2018-08-24T04:54:35.051Z,61.88
2018-08-24T04:55:35.070Z,61.88
2018-08-24T04:56:35.018Z,61.88
2018-08-24T04:57:35.020Z,67.50
2018-08-24T04:58:35.065Z,67.50
2018-08-24T04:59:34.984Z,67.50
2018-08-24T05:00:35.047Z,73.12
2018-08-24T05:01:34.957Z,73.12
2018-08-24T05:02:34.949Z,73.12
2018-08-24T05:03:34.951Z,78.75
2018-08-24T05:04:34.931Z,78.75
2018-08-24T05:05:34.982Z,78.75
2018-08-24T05:06:34.917Z,78.75
2018-08-24T05:07:34.907Z,78.75
2018-08-24T05:08:34.895Z,84.38
2018-08-24T05:09:34.878Z,84.38
2018-08-24T05:10:34.897Z,84.38
2018-08-24T05:11:34.853Z,84.38
2018-08-24T05:12:34.844Z,90.00
2018-08-24T05:13:34.826Z,90.00
2018-08-24T05:14:34.817Z,90.00
2018-08-24T05:15:34.867Z,90.00
2018-08-24T05:16:34.793Z,90.00
2018-08-24T05:17:34.787Z,90.00
2018-08-24T05:18:34.773Z,95.62
2018-08-24T05:19:34.781Z,95.62
2018-08-24T05:20:34.795Z,95.62
2018-08-24T05:21:34.741Z,95.62
2018-08-24T05:22:34.761Z,95.62
2018-08-24T05:23:34.713Z,95.62
2018-08-24T05:24:34.713Z,95.62
2018-08-24T05:25:34.724Z,90.00
2018-08-24T05:26:34.672Z,95.62
2018-08-24T05:27:34.676Z,95.62
2018-08-24T05:28:34.657Z,90.00
2018-08-24T05:29:34.649Z,84.38
2018-08-24T05:30:34.696Z,84.38
2018-08-24T05:31:34.664Z,78.75
2018-08-24T05:32:34.668Z,78.75
2018-08-24T05:33:34.632Z,84.38
2018-08-24T05:34:34.604Z,84.38
2018-08-24T05:35:34.634Z,90.00
2018-08-24T05:36:34.643Z,95.62
2018-08-24T05:37:34.585Z,95.62
2018-08-24T05:38:34.592Z,90.00
2018-08-24T05:39:34.533Z,90.00
2018-08-24T05:40:34.517Z,84.38
2018-08-24T05:41:34.665Z,84.38
2018-08-24T05:42:34.610Z,78.75
2018-08-24T05:43:34.498Z,78.75
2018-08-24T05:44:34.469Z,84.38
2018-08-24T05:45:34.461Z,90.00
2018-08-24T05:46:34.469Z,90.00
2018-08-24T05:47:34.581Z,95.62
2018-08-24T05:48:34.441Z,95.62
2018-08-24T05:49:34.435Z,95.62
2018-08-24T05:50:34.404Z,95.62
2018-08-24T05:51:34.413Z,90.00
2018-08-24T05:52:34.423Z,90.00
2018-08-24T05:53:34.367Z,90.00
2018-08-24T05:54:34.358Z,90.00
2018-08-24T05:55:34.389Z,90.00
2018-08-24T05:56:34.333Z,90.00
2018-08-24T05:57:34.363Z,95.62
2018-08-24T05:58:34.319Z,101.25
2018-08-24T05:59:34.314Z,106.88
2018-08-24T06:00:34.312Z,118.12
2018-08-24T06:01:34.295Z,129.38
2018-08-24T06:02:34.321Z,140.62
2018-08-24T06:03:34.265Z,129.38
2018-08-24T06:04:34.278Z,112.50
2018-08-24T06:05:34.264Z,106.88
2018-08-24T06:06:34.231Z,112.50
2018-08-24T06:07:34.256Z,101.25
2018-08-24T06:08:34.206Z,95.62
2018-08-24T06:09:34.233Z,118.12
2018-08-24T06:10:34.187Z,135.00
2018-08-24T06:11:34.180Z,168.75
2018-08-24T06:12:34.224Z,219.38
2018-08-24T06:13:34.147Z,253.12
2018-08-24T06:14:34.142Z,286.88
2018-08-24T06:15:34.113Z,303.75
2018-08-24T06:16:34.132Z,303.75
2018-08-24T06:17:34.149Z,298.12
2018-08-24T06:18:34.088Z,298.12
2018-08-24T06:19:34.097Z,337.50
2018-08-24T06:20:34.073Z,315.00
2018-08-24T06:21:34.062Z,315.00
2018-08-24T06:22:34.131Z,292.50
2018-08-24T06:23:34.029Z,258.75
2018-08-24T06:24:34.092Z,270.00
2018-08-24T06:25:34.043Z,286.88
2018-08-24T06:26:34.091Z,292.50
2018-08-24T06:27:34.027Z,275.62
2018-08-24T06:28:33.977Z,258.75
2018-08-24T06:29:33.971Z,258.75
2018-08-24T06:30:33.956Z,258.75
2018-08-24T06:31:33.950Z,247.50
2018-08-24T06:32:34.004Z,247.50
2018-08-24T06:33:33.932Z,281.25
2018-08-24T06:34:33.914Z,315.00
2018-08-24T06:35:33.896Z,326.25
2018-08-24T06:36:33.896Z,337.50
2018-08-24T06:37:33.946Z,326.25
2018-08-24T06:38:33.865Z,258.75
2018-08-24T06:39:33.858Z,275.62
2018-08-24T06:40:33.863Z,303.75
2018-08-24T06:41:33.838Z,292.50
2018-08-24T06:42:33.870Z,281.25
2018-08-24T06:43:33.814Z,236.25
2018-08-24T06:44:33.797Z,185.62
2018-08-24T06:45:33.798Z,213.75
2018-08-24T06:46:33.795Z,236.25
2018-08-24T06:47:33.857Z,258.75
2018-08-24T06:48:33.808Z,236.25
2018-08-24T06:49:33.746Z,219.38
2018-08-24T06:50:33.730Z,191.25
2018-08-24T06:51:33.770Z,208.12
2018-08-24T06:52:33.712Z,219.38
2018-08-24T06:53:33.933Z,185.62
2018-08-24T06:54:33.696Z,185.62
2018-08-24T06:55:33.672Z,208.12
2018-08-24T06:56:33.740Z,253.12
2018-08-24T06:57:33.705Z,253.12
2018-08-24T06:58:33.646Z,208.12
2018-08-24T06:59:33.783Z,129.38
2018-08-24T07:00:33.626Z,84.38
2018-08-24T07:01:33.610Z,73.12
2018-08-24T07:02:33.591Z,78.75
2018-08-24T07:03:33.591Z,78.75
2018-08-24T07:04:33.621Z,84.38
2018-08-24T07:05:33.572Z,73.12
2018-08-24T07:06:33.545Z,73.12
2018-08-24T07:07:33.603Z,67.50
2018-08-24T07:08:33.549Z,84.38
2018-08-24T07:09:33.518Z,112.50
2018-08-24T07:10:33.541Z,157.50
2018-08-24T07:11:33.502Z,202.50
2018-08-24T07:12:33.598Z,191.25
2018-08-24T07:13:33.501Z,168.75
2018-08-24T07:14:33.457Z,225.00
2018-08-24T07:15:33.590Z,236.25
2018-08-24T07:16:33.444Z,258.75
2018-08-24T07:17:33.467Z,281.25
2018-08-24T07:18:33.416Z,343.12
2018-08-24T07:19:33.469Z,388.12
2018-08-24T07:20:33.453Z,399.38
2018-08-24T07:21:33.388Z,371.25
2018-08-24T07:22:33.374Z,343.12
2018-08-24T07:23:33.392Z,365.62
2018-08-24T07:24:33.389Z,376.88
2018-08-24T07:25:33.416Z,382.50
2018-08-24T07:26:34.013Z,399.38
2018-08-24T07:27:33.369Z,354.38
2018-08-24T07:28:33.296Z,388.12
2018-08-24T07:29:33.294Z,438.75
2018-08-24T07:30:33.341Z,416.25
2018-08-24T07:31:33.277Z,472.50
2018-08-24T07:32:33.365Z,393.75
2018-08-24T07:33:33.254Z,421.88
2018-08-24T07:34:33.243Z,410.62
2018-08-24T07:35:35.339Z,388.12
2018-08-24T07:36:34.765Z,461.25
2018-08-24T07:37:33.749Z,579.38
2018-08-24T07:38:33.187Z,573.75
2018-08-24T07:39:33.187Z,489.38
2018-08-24T07:40:33.169Z,478.12
2018-08-24T07:41:33.232Z,466.88
2018-08-24T07:42:33.178Z,596.25
2018-08-24T07:43:33.137Z,500.62
2018-08-24T07:44:33.143Z,523.12
2018-08-24T07:45:33.111Z,534.38
2018-08-24T07:46:33.099Z,478.12
2018-08-24T07:47:33.185Z,438.75
2018-08-24T07:48:33.109Z,478.12
2018-08-24T07:49:33.071Z,523.12
2018-08-24T07:50:33.080Z,562.50
2018-08-24T07:51:33.058Z,613.12
2018-08-24T07:52:33.069Z,601.88
2018-08-24T07:53:33.079Z,607.50
2018-08-24T07:54:33.044Z,691.88
2018-08-24T07:55:33.013Z,720.00
2018-08-24T07:56:33.045Z,708.75
2018-08-24T07:57:32.984Z,720.00
2018-08-24T07:58:32.997Z,669.38
2018-08-24T07:59:32.964Z,613.12
2018-08-24T08:00:32.945Z,641.25
2018-08-24T08:01:32.932Z,551.25
2018-08-24T08:02:32.963Z,635.62
2018-08-24T08:03:32.915Z,540.00
2018-08-24T08:04:32.902Z,590.62
2018-08-24T08:05:32.886Z,793.12
2018-08-24T08:06:32.888Z,545.62
2018-08-24T08:07:32.899Z,534.38
2018-08-24T08:08:32.855Z,618.75
2018-08-24T08:09:32.832Z,635.62
2018-08-24T08:10:32.820Z,562.50
2018-08-24T08:11:32.820Z,630.00
2018-08-24T08:12:32.881Z,703.12
2018-08-24T08:13:32.806Z,888.75
2018-08-24T08:14:32.850Z,596.25
2018-08-24T08:15:32.763Z,573.75
2018-08-24T08:16:32.763Z,618.75
2018-08-24T08:17:32.745Z,708.75
2018-08-24T08:18:32.789Z,568.12
2018-08-24T08:19:32.756Z,534.38
2018-08-24T08:20:32.710Z,556.88
2018-08-24T08:21:32.700Z,556.88
2018-08-24T08:22:32.685Z,596.25
2018-08-24T08:23:32.688Z,562.50
2018-08-24T08:24:32.726Z,568.12
2018-08-24T08:25:32.697Z,585.00
2018-08-24T08:26:32.640Z,590.62
2018-08-24T08:27:32.625Z,601.88
2018-08-24T08:28:32.624Z,630.00
2018-08-24T08:29:32.600Z,793.12
2018-08-24T08:30:32.633Z,669.38
2018-08-24T08:31:32.587Z,697.50
2018-08-24T08:32:32.649Z,708.75
2018-08-24T08:33:32.571Z,736.88
2018-08-24T08:34:32.545Z,759.38
2018-08-24T08:35:32.577Z,720.00
2018-08-24T08:36:32.555Z,675.00
2018-08-24T08:37:32.540Z,675.00
2018-08-24T08:38:32.542Z,714.38
2018-08-24T08:39:32.508Z,720.00
2018-08-24T08:40:32.498Z,748.12
2018-08-24T08:41:32.546Z,652.50
2018-08-24T08:42:32.496Z,646.88
2018-08-24T08:43:32.478Z,776.25
2018-08-24T08:44:32.454Z,815.62
2018-08-24T08:45:32.447Z,866.25
2018-08-24T08:46:32.480Z,1046.25
2018-08-24T08:47:32.422Z,894.38
2018-08-24T08:48:32.406Z,956.25
2018-08-24T08:49:32.389Z,905.62
2018-08-24T08:50:32.376Z,922.50
2018-08-24T08:51:32.425Z,956.25
2018-08-24T08:52:32.354Z,1231.88
2018-08-24T08:53:32.381Z,1265.62
2018-08-24T08:54:32.330Z,978.75
2018-08-24T08:55:32.317Z,1023.75
2018-08-24T08:56:32.342Z,1012.50
2018-08-24T08:57:32.306Z,1108.12
2018-08-24T08:58:32.290Z,1040.62
2018-08-24T08:59:32.282Z,1057.50
2018-08-24T09:00:32.266Z,1051.88
2018-08-24T09:01:32.284Z,1136.25
2018-08-24T09:02:32.242Z,1091.25
2018-08-24T09:03:32.232Z,1186.88
2018-08-24T09:04:32.216Z,1170.00
2018-08-24T09:05:32.208Z,1608.75
2018-08-24T09:06:32.327Z,1226.25
2018-08-24T09:07:32.188Z,1771.88
2018-08-24T09:08:32.168Z,888.75
2018-08-24T09:09:32.164Z,843.75
2018-08-24T09:10:32.148Z,928.12
2018-08-24T09:11:32.164Z,900.00
2018-08-24T09:12:32.121Z,838.12
2018-08-24T09:13:32.112Z,860.62
2018-08-24T09:14:32.095Z,911.25
2018-08-24T09:15:32.093Z,810.00
2018-08-24T09:16:32.110Z,736.88
2018-08-24T09:17:32.067Z,860.62
2018-08-24T09:18:32.121Z,793.12
2018-08-24T09:19:32.042Z,877.50
2018-08-24T09:20:32.028Z,871.88
2018-08-24T09:21:32.049Z,1040.62
2018-08-24T09:22:32.031Z,978.75
2018-08-24T09:23:31.993Z,810.00
2018-08-24T09:24:31.992Z,866.25
2018-08-24T09:25:32.000Z,714.38
2018-08-24T09:26:31.996Z,675.00
2018-08-24T09:27:31.953Z,753.75
2018-08-24T09:28:31.942Z,748.12
2018-08-24T09:29:31.932Z,630.00
2018-08-24T09:30:31.918Z,810.00
2018-08-24T09:31:31.941Z,967.50
2018-08-24T09:32:31.985Z,1012.50
2018-08-24T09:33:31.882Z,1063.12
2018-08-24T09:34:31.879Z,973.12
2018-08-24T09:35:31.871Z,984.38
2018-08-24T09:36:31.898Z,1029.38
2018-08-24T09:37:31.841Z,995.62
2018-08-24T09:38:31.826Z,1001.25
2018-08-24T09:39:31.821Z,1068.75
2018-08-24T09:40:31.807Z,871.88
2018-08-24T09:41:31.848Z,731.25
2018-08-24T09:42:31.794Z,877.50
2018-08-24T09:43:31.784Z,1141.88
2018-08-24T09:44:31.774Z,1327.50
2018-08-24T09:45:31.778Z,1338.75
2018-08-24T09:46:31.788Z,1192.50
2018-08-24T09:47:31.758Z,1462.50
2018-08-24T09:48:31.728Z,1456.88
2018-08-24T09:49:31.718Z,1653.75
2018-08-24T09:50:31.702Z,2126.25
2018-08-24T09:51:31.720Z,2328.75
2018-08-24T09:52:31.711Z,2261.25
2018-08-24T09:53:31.672Z,2340.00
2018-08-24T09:54:31.660Z,2424.38
2018-08-24T09:55:31.641Z,2379.38
2018-08-24T09:56:31.632Z,2385.00
2018-08-24T09:57:31.698Z,2508.75
2018-08-24T09:58:31.640Z,2531.25
2018-08-24T09:59:31.613Z,2615.62
2018-08-24T10:00:31.600Z,2413.12
2018-08-24T10:01:31.584Z,2857.50
2018-08-24T10:02:31.630Z,2666.25
2018-08-24T10:03:31.565Z,2806.88
2018-08-24T10:04:31.560Z,1822.50
2018-08-24T10:05:31.534Z,1001.25
2018-08-24T10:06:31.602Z,1175.62
2018-08-24T10:07:31.568Z,961.88
2018-08-24T10:08:31.508Z,1158.75
2018-08-24T10:09:31.514Z,770.62
2018-08-24T10:10:31.482Z,1951.88
2018-08-24T10:11:31.487Z,2064.38
2018-08-24T10:12:31.573Z,2030.62
2018-08-24T10:13:31.443Z,1704.38
2018-08-24T10:14:31.437Z,1597.50
2018-08-24T10:15:31.424Z,1614.38
2018-08-24T10:16:31.423Z,1552.50
2018-08-24T10:17:31.445Z,1440.00
2018-08-24T10:18:31.380Z,1473.75
2018-08-24T10:19:31.406Z,1395.00
2018-08-24T10:20:31.363Z,1338.75
2018-08-24T10:21:31.366Z,1310.62
2018-08-24T10:22:31.408Z,1456.88
2018-08-24T10:23:31.329Z,1440.00
2018-08-24T10:24:31.328Z,1293.75
2018-08-24T10:25:31.310Z,1181.25
2018-08-24T10:26:31.310Z,1333.12
2018-08-24T10:27:31.330Z,1743.75
2018-08-24T10:28:31.289Z,1822.50
2018-08-24T10:29:31.301Z,1614.38
2018-08-24T10:30:31.260Z,1591.88
2018-08-24T10:31:31.303Z,1642.50
2018-08-24T10:32:31.240Z,1788.75
2018-08-24T10:33:31.234Z,1400.62
2018-08-24T10:34:31.250Z,1102.50
2018-08-24T10:35:31.212Z,736.88
2018-08-24T10:36:31.238Z,680.62
2018-08-24T10:37:31.189Z,680.62
2018-08-24T10:38:31.176Z,630.00
2018-08-24T10:39:31.202Z,596.25
2018-08-24T10:40:31.162Z,556.88
2018-08-24T10:41:31.146Z,517.50
2018-08-24T10:42:31.158Z,466.88
2018-08-24T10:43:31.131Z,433.12
2018-08-24T10:44:31.103Z,410.62
2018-08-24T10:45:31.096Z,416.25
2018-08-24T10:46:31.081Z,433.12
2018-08-24T10:47:31.094Z,450.00
2018-08-24T10:48:31.062Z,461.25
2018-08-24T10:49:31.243Z,472.50
2018-08-24T10:50:31.030Z,466.88
2018-08-24T10:51:31.059Z,466.88
2018-08-24T10:52:31.047Z,472.50
2018-08-24T10:53:31.003Z,466.88
2018-08-24T10:54:31.032Z,478.12
2018-08-24T10:55:30.987Z,478.12
2018-08-24T10:56:30.964Z,495.00
2018-08-24T10:57:30.983Z,495.00
2018-08-24T10:58:30.962Z,489.38
2018-08-24T10:59:30.974Z,489.38
2018-08-24T11:00:30.919Z,511.88
2018-08-24T11:01:30.912Z,534.38
2018-08-24T11:02:30.902Z,551.25
2018-08-24T11:03:30.913Z,556.88
2018-08-24T11:04:31.206Z,568.12
2018-08-24T11:05:30.959Z,607.50
2018-08-24T11:06:30.851Z,646.88
2018-08-24T11:07:30.871Z,646.88
2018-08-24T11:08:30.829Z,596.25
2018-08-24T11:09:30.817Z,534.38
2018-08-24T11:10:30.806Z,483.75
2018-08-24T11:11:30.797Z,455.62
2018-08-24T11:12:30.811Z,455.62
2018-08-24T11:13:30.776Z,466.88
2018-08-24T11:14:30.755Z,472.50
2018-08-24T11:15:30.747Z,466.88
2018-08-24T11:16:30.733Z,455.62
2018-08-24T11:17:30.772Z,472.50
2018-08-24T11:18:30.727Z,483.75
2018-08-24T11:19:30.711Z,489.38
2018-08-24T11:20:30.706Z,495.00
2018-08-24T11:21:30.692Z,495.00
2018-08-24T11:22:30.724Z,495.00
2018-08-24T11:23:30.671Z,483.75
2018-08-24T11:24:30.651Z,478.12
2018-08-24T11:25:30.652Z,472.50
2018-08-24T11:26:30.632Z,438.75
2018-08-24T11:27:30.656Z,433.12
2018-08-24T11:28:30.627Z,444.38
2018-08-24T11:29:30.629Z,444.38
2018-08-24T11:30:30.590Z,438.75
2018-08-24T11:31:30.574Z,410.62
2018-08-24T11:32:30.568Z,405.00
2018-08-24T11:33:30.600Z,393.75
2018-08-24T11:34:30.540Z,388.12
2018-08-24T11:35:30.531Z,388.12
2018-08-24T11:36:30.522Z,382.50
2018-08-24T11:37:30.545Z,371.25
2018-08-24T11:38:30.491Z,360.00
2018-08-24T11:39:30.490Z,348.75
2018-08-24T11:40:30.476Z,348.75
2018-08-24T11:41:30.496Z,360.00
2018-08-24T11:42:30.454Z,354.38
2018-08-24T11:43:30.440Z,348.75
2018-08-24T11:44:30.461Z,348.75
2018-08-24T11:45:30.470Z,360.00
2018-08-24T11:46:30.410Z,393.75
2018-08-24T11:47:30.394Z,427.50
2018-08-24T11:48:30.387Z,438.75
2018-08-24T11:49:30.364Z,438.75
2018-08-24T11:50:30.382Z,438.75
2018-08-24T11:51:30.345Z,472.50
2018-08-24T11:52:30.338Z,540.00
2018-08-24T11:53:30.327Z,641.25
2018-08-24T11:54:30.358Z,697.50
2018-08-24T11:55:30.330Z,714.38
2018-08-24T11:56:30.285Z,714.38
2018-08-24T11:57:30.282Z,725.62
2018-08-24T11:58:30.259Z,748.12
2018-08-24T11:59:30.260Z,759.38
2018-08-24T12:00:30.273Z,765.00
2018-08-24T12:01:30.232Z,860.62
2018-08-24T12:02:30.276Z,838.12
2018-08-24T12:03:30.216Z,866.25
2018-08-24T12:04:30.193Z,815.62
2018-08-24T12:05:30.183Z,815.62
2018-08-24T12:06:30.222Z,973.12
2018-08-24T12:07:30.157Z,1260.00
2018-08-24T12:08:30.210Z,1473.75
2018-08-24T12:09:30.167Z,1288.12
2018-08-24T12:10:30.130Z,1333.12
2018-08-24T12:11:30.115Z,1693.12
2018-08-24T12:12:30.169Z,1963.12
2018-08-24T12:13:30.097Z,1946.25
2018-08-24T12:14:30.114Z,1355.62
2018-08-24T12:15:30.073Z,1231.88
2018-08-24T12:16:30.072Z,1153.12
2018-08-24T12:17:30.048Z,1147.50
2018-08-24T12:18:30.109Z,1074.38
2018-08-24T12:19:30.058Z,973.12
2018-08-24T12:20:30.020Z,832.50
2018-08-24T12:21:30.047Z,731.25
2018-08-24T12:22:30.010Z,680.62
2018-08-24T12:23:30.039Z,663.75
2018-08-24T12:24:30.060Z,646.88
2018-08-24T12:25:30.007Z,658.12
2018-08-24T12:26:29.956Z,675.00
2018-08-24T12:27:29.959Z,691.88
2018-08-24T12:28:30.008Z,686.25
2018-08-24T12:29:29.920Z,669.38
2018-08-24T12:30:29.914Z,731.25
2018-08-24T12:31:29.919Z,765.00
2018-08-24T12:32:29.893Z,720.00
2018-08-24T12:33:29.935Z,663.75
2018-08-24T12:34:29.862Z,641.25
2018-08-24T12:35:29.862Z,725.62
2018-08-24T12:36:29.848Z,804.38
2018-08-24T12:37:29.841Z,748.12
2018-08-24T12:38:29.859Z,686.25
2018-08-24T12:39:29.806Z,573.75
2018-08-24T12:40:29.794Z,450.00
2018-08-24T12:41:29.792Z,354.38
2018-08-24T12:42:29.808Z,292.50
2018-08-24T12:43:29.783Z,264.38
2018-08-24T12:44:29.770Z,270.00
2018-08-24T12:45:29.781Z,275.62